createdAt,value
2022-12-14T00:01:54.102Z,20.77
2022-12-14T00:04:21.725Z,18.52
2022-12-14T00:06:49.299Z,22.63
2022-12-14T00:09:16.865Z,21.83
2022-12-14T00:11:44.447Z,20.67
2022-12-14T00:14:12.138Z,20.10
2022-12-14T00:16:39.788Z,19.40
2022-12-14T00:19:07.331Z,20.75
2022-12-14T00:21:35.570Z,22.02
2022-12-14T00:24:04.269Z,21.30
2022-12-14T00:26:33.170Z,17.55
2022-12-14T00:29:02.421Z,17.05
2022-12-14T00:31:31.464Z,19.40
2022-12-14T00:33:59.315Z,18.98
2022-12-14T00:36:26.982Z,19.23
2022-12-14T00:38:54.534Z,18.60
2022-12-14T00:41:22.158Z,18.67
2022-12-14T00:43:49.993Z,19.92
2022-12-14T00:46:18.212Z,18.83
2022-12-14T00:48:46.465Z,19.20
2022-12-14T00:51:15.053Z,21.00
2022-12-14T00:53:43.936Z,18.83
2022-12-14T00:56:11.544Z,17.98
2022-12-14T00:58:39.143Z,18.90
2022-12-14T01:01:08.323Z,18.55
2022-12-14T01:03:36.228Z,19.33
2022-12-14T01:06:03.995Z,21.27
2022-12-14T01:08:35.801Z,21.13
2022-12-14T01:11:08.089Z,18.58
2022-12-14T01:13:36.572Z,20.70
2022-12-14T01:16:09.316Z,17.02
2022-12-14T01:18:38.875Z,21.33
2022-12-14T01:21:11.654Z,18.08
2022-12-14T01:23:39.357Z,16.52
2022-12-14T01:26:07.107Z,17.58
2022-12-14T01:28:35.197Z,14.77
2022-12-14T01:31:14.101Z,16.75
2022-12-14T01:33:41.846Z,19.33
2022-12-14T01:36:12.147Z,16.70
2022-12-14T01:38:39.795Z,18.40
2022-12-14T01:41:08.622Z,18.45
2022-12-14T01:43:54.296Z,16.58
2022-12-14T01:46:37.950Z,16.58
2022-12-14T01:49:15.427Z,16.55
2022-12-14T01:51:52.625Z,17.63
2022-12-14T01:54:20.548Z,18.85
2022-12-14T01:56:48.389Z,23.42
2022-12-14T01:59:22.143Z,17.00
2022-12-14T02:01:49.957Z,15.18
2022-12-14T02:04:18.702Z,17.77
2022-12-14T02:06:48.952Z,17.60
2022-12-14T02:09:20.388Z,13.70
2022-12-14T02:12:18.552Z,15.98
2022-12-14T02:14:46.382Z,20.30
2022-12-14T02:17:14.789Z,19.33
2022-12-14T02:19:49.333Z,17.75
2022-12-14T02:22:29.251Z,16.55
2022-12-14T02:25:41.210Z,16.85
2022-12-14T02:28:36.027Z,16.45
2022-12-14T02:31:45.495Z,15.40
2022-12-14T02:34:35.185Z,18.95
2022-12-14T02:39:50.718Z,14.77
2022-12-14T02:42:26.528Z,15.07
2022-12-14T02:45:25.899Z,16.83
2022-12-14T02:47:55.275Z,20.27
2022-12-14T02:50:39.695Z,16.10
2022-12-14T02:53:31.484Z,14.38
2022-12-14T02:56:03.903Z,14.65
2022-12-14T02:58:36.662Z,15.50
2022-12-14T03:01:04.761Z,16.10
2022-12-14T03:03:32.347Z,14.52
2022-12-14T03:06:01.936Z,14.82
2022-12-14T03:08:32.231Z,17.20
2022-12-14T03:11:02.670Z,15.75
2022-12-14T03:13:33.176Z,16.63
2022-12-14T03:16:22.818Z,15.07
2022-12-14T03:18:59.475Z,16.20
2022-12-14T03:21:31.985Z,16.00
2022-12-14T03:24:02.517Z,16.77
2022-12-14T03:27:01.855Z,14.75
2022-12-14T03:29:35.790Z,15.80
2022-12-14T03:32:08.010Z,17.27
2022-12-14T03:34:40.377Z,14.93
2022-12-14T03:37:19.414Z,16.95
2022-12-14T03:39:47.775Z,19.20
2022-12-14T03:42:36.875Z,14.85
2022-12-14T03:47:44.768Z,18.10
2022-12-14T03:53:12.349Z,16.70
2022-12-14T03:55:45.632Z,14.25
2022-12-14T03:58:57.317Z,14.40
2022-12-14T04:02:08.667Z,15.05
2022-12-14T04:04:42.266Z,18.10
2022-12-14T04:07:12.810Z,16.85
2022-12-14T04:10:26.000Z,16.00
2022-12-14T04:13:16.732Z,14.82
2022-12-14T04:16:03.729Z,15.27
2022-12-14T04:18:59.534Z,15.60
2022-12-14T04:21:42.705Z,13.85
2022-12-14T04:24:48.220Z,15.18
2022-12-14T04:27:27.234Z,16.20
2022-12-14T04:29:57.843Z,14.40
2022-12-14T04:32:34.600Z,13.77
2022-12-14T04:35:13.784Z,16.38
2022-12-14T04:37:44.307Z,15.90
2022-12-14T04:40:27.103Z,14.50
2022-12-14T04:43:01.327Z,13.88
2022-12-14T04:45:33.716Z,14.50
2022-12-14T04:48:17.485Z,15.48
2022-12-14T04:51:10.551Z,17.23
2022-12-14T04:56:36.341Z,15.65
2022-12-14T04:59:04.378Z,15.30
2022-12-14T05:01:52.928Z,15.98
2022-12-14T05:04:57.566Z,16.02
2022-12-14T05:07:42.380Z,15.60
2022-12-14T05:10:22.423Z,14.27
2022-12-14T05:13:07.342Z,13.30
2022-12-14T05:15:41.011Z,15.32
2022-12-14T05:18:08.777Z,15.15
2022-12-14T05:20:36.321Z,14.95
2022-12-14T05:23:03.921Z,15.88
2022-12-14T05:25:31.572Z,15.65
2022-12-14T05:27:59.202Z,16.67
2022-12-14T05:30:26.842Z,14.88
2022-12-14T05:32:54.470Z,15.07
2022-12-14T05:35:22.251Z,13.82
2022-12-14T05:37:49.816Z,15.50
2022-12-14T05:40:17.782Z,14.52
2022-12-14T05:42:47.689Z,16.88
2022-12-14T05:45:18.866Z,15.20
2022-12-14T05:47:46.474Z,15.93
2022-12-14T05:50:14.006Z,17.50
2022-12-14T05:52:41.539Z,16.20
2022-12-14T05:55:09.582Z,23.83
2022-12-14T05:57:37.151Z,13.85
2022-12-14T06:00:05.443Z,16.85
2022-12-14T06:02:33.301Z,14.75
2022-12-14T06:05:00.927Z,13.45
2022-12-14T06:07:28.550Z,16.73
2022-12-14T06:09:56.462Z,15.02
2022-12-14T06:12:24.026Z,15.02
2022-12-14T06:14:51.620Z,15.93
2022-12-14T06:17:19.182Z,14.82
2022-12-14T06:19:49.882Z,16.00
2022-12-14T06:22:19.052Z,16.88
2022-12-14T06:24:46.592Z,13.95
2022-12-14T06:27:14.156Z,15.00
2022-12-14T06:29:41.723Z,15.48
2022-12-14T06:32:09.320Z,14.35
2022-12-14T06:34:40.645Z,15.95
2022-12-14T06:37:09.173Z,14.35
2022-12-14T06:39:37.026Z,15.82
2022-12-14T06:42:04.802Z,14.80
2022-12-14T06:44:32.398Z,15.95
2022-12-14T06:47:00.343Z,16.50
2022-12-14T06:49:28.228Z,15.45
2022-12-14T06:51:55.776Z,17.15
2022-12-14T06:54:23.365Z,15.95
2022-12-14T06:56:51.518Z,14.85
2022-12-14T06:59:19.306Z,14.05
2022-12-14T07:01:49.863Z,14.75
2022-12-14T07:04:21.020Z,15.32
2022-12-14T07:06:49.786Z,16.60
2022-12-14T07:09:17.385Z,15.05
2022-12-14T07:11:45.007Z,15.52
2022-12-14T07:14:18.906Z,14.63
2022-12-14T07:16:48.623Z,15.27
2022-12-14T07:19:17.442Z,15.45
2022-12-14T07:21:45.093Z,16.20
2022-12-14T07:24:12.642Z,14.77
2022-12-14T07:26:40.240Z,15.07
2022-12-14T07:29:09.265Z,13.70
2022-12-14T07:31:36.952Z,13.25
2022-12-14T07:34:04.701Z,14.85
2022-12-14T07:36:33.013Z,15.55
2022-12-14T07:39:00.629Z,14.82
2022-12-14T07:41:31.155Z,14.65
2022-12-14T07:44:00.614Z,15.85
2022-12-14T07:46:29.854Z,17.33
2022-12-14T07:48:59.146Z,13.43
2022-12-14T07:51:32.079Z,14.80
2022-12-14T07:54:00.444Z,17.70
2022-12-14T07:56:30.719Z,15.40
2022-12-14T07:58:59.181Z,14.20
2022-12-14T08:01:35.001Z,17.92
2022-12-14T08:04:08.152Z,15.55
2022-12-14T08:06:36.859Z,14.32
2022-12-14T08:09:05.658Z,14.95
2022-12-14T08:11:33.442Z,13.18
2022-12-14T08:14:04.530Z,14.23
2022-12-14T08:16:32.841Z,13.70
2022-12-14T08:19:01.013Z,12.82
2022-12-14T08:21:29.179Z,14.88
2022-12-14T08:23:57.735Z,17.05
2022-12-14T08:26:30.168Z,14.35
2022-12-14T08:29:01.102Z,15.30
2022-12-14T08:31:29.083Z,13.13
2022-12-14T08:33:58.163Z,14.50
2022-12-14T08:36:32.640Z,15.10
2022-12-14T08:39:07.093Z,13.50
2022-12-14T08:41:35.034Z,14.27
2022-12-14T08:44:04.579Z,14.18
2022-12-14T08:46:33.979Z,12.75
2022-12-14T08:49:01.778Z,13.27
2022-12-14T08:51:30.108Z,13.65
2022-12-14T08:53:58.356Z,13.82
2022-12-14T08:56:27.649Z,12.88
2022-12-14T08:58:56.083Z,15.50
2022-12-14T09:01:33.539Z,12.85
2022-12-14T09:04:08.318Z,11.60
2022-12-14T09:06:38.972Z,13.85
2022-12-14T09:09:13.567Z,14.68
2022-12-14T09:11:44.311Z,11.50
2022-12-14T09:14:12.083Z,12.70
2022-12-14T09:16:40.258Z,15.82
2022-12-14T09:19:07.981Z,15.68
2022-12-14T09:21:35.613Z,16.85
2022-12-14T09:24:03.338Z,13.38
2022-12-14T09:26:30.904Z,14.55
2022-12-14T09:28:58.482Z,14.38
2022-12-14T09:31:27.524Z,14.80
2022-12-14T09:33:55.568Z,14.30
2022-12-14T09:36:25.401Z,18.00
2022-12-14T09:38:55.362Z,15.90
2022-12-14T09:41:31.987Z,14.98
2022-12-14T09:46:48.761Z,14.70
2022-12-14T09:49:41.712Z,15.43
2022-12-14T09:52:45.373Z,14.77
2022-12-14T09:55:27.239Z,13.05
2022-12-14T09:57:59.316Z,14.18
2022-12-14T10:00:40.766Z,15.32
2022-12-14T10:03:17.363Z,13.23
2022-12-14T10:06:09.520Z,14.60
2022-12-14T10:08:54.892Z,13.70
2022-12-14T10:11:44.271Z,15.40
2022-12-14T10:14:24.323Z,16.45
2022-12-14T10:17:10.295Z,16.48
2022-12-14T10:20:12.655Z,14.52
2022-12-14T10:22:44.627Z,14.63
2022-12-14T10:25:24.996Z,13.57
2022-12-14T10:28:11.515Z,14.65
2022-12-14T10:30:42.008Z,13.10
2022-12-14T10:33:29.556Z,14.48
2022-12-14T10:35:59.923Z,16.20
2022-12-14T10:38:39.805Z,18.10
2022-12-14T10:41:33.326Z,13.68
2022-12-14T10:44:24.672Z,14.90
2022-12-14T10:47:20.007Z,13.75
2022-12-14T10:50:25.863Z,15.80
2022-12-14T10:55:32.506Z,13.00
2022-12-14T10:58:01.200Z,12.55
2022-12-14T11:00:29.020Z,13.98
2022-12-14T11:02:58.025Z,12.00
2022-12-14T11:05:37.255Z,14.73
2022-12-14T11:08:08.829Z,12.65
2022-12-14T11:10:40.750Z,12.82
2022-12-14T11:13:17.839Z,12.38
2022-12-14T11:15:48.024Z,13.48
2022-12-14T11:18:19.870Z,11.60
2022-12-14T11:20:59.269Z,12.80
2022-12-14T11:23:41.563Z,13.20
2022-12-14T11:26:37.011Z,14.18
2022-12-14T11:29:06.976Z,11.52
2022-12-14T11:31:40.497Z,13.00
2022-12-14T11:34:22.267Z,13.00
2022-12-14T11:36:50.262Z,11.80
2022-12-14T11:39:25.664Z,13.60
2022-12-14T11:41:59.144Z,12.70
2022-12-14T11:44:31.047Z,14.55
2022-12-14T11:46:58.585Z,12.63
2022-12-14T11:49:28.113Z,11.27
2022-12-14T11:52:19.790Z,14.20
2022-12-14T11:54:54.192Z,13.40
2022-12-14T12:00:47.000Z,14.63
2022-12-14T12:03:53.493Z,13.48
2022-12-14T12:06:27.953Z,12.40
2022-12-14T12:08:58.384Z,13.75
2022-12-14T12:11:32.187Z,12.05
2022-12-14T12:14:29.741Z,14.43
2022-12-14T12:16:57.873Z,12.48
2022-12-14T12:19:32.644Z,12.38
2022-12-14T12:22:01.714Z,14.02
2022-12-14T12:24:30.675Z,15.00
2022-12-14T12:27:03.458Z,13.27
2022-12-14T12:29:50.632Z,13.82
2022-12-14T12:32:35.314Z,16.98
2022-12-14T12:35:17.557Z,14.25
2022-12-14T12:38:07.982Z,14.73
2022-12-14T12:41:11.770Z,12.57
2022-12-14T12:43:53.616Z,15.15
2022-12-14T12:46:31.032Z,12.52
2022-12-14T12:49:06.358Z,12.75
2022-12-14T12:51:56.510Z,11.93
2022-12-14T12:54:29.315Z,14.93
2022-12-14T12:56:58.156Z,12.43
2022-12-14T12:59:37.597Z,14.13
2022-12-14T13:02:20.205Z,13.55
2022-12-14T13:04:52.623Z,15.52
2022-12-14T13:07:26.860Z,16.65
2022-12-14T13:10:06.082Z,15.40
2022-12-14T13:12:38.502Z,12.88
2022-12-14T13:15:16.608Z,13.43
2022-12-14T13:17:54.093Z,13.38
2022-12-14T13:20:34.641Z,14.57
2022-12-14T13:23:28.402Z,11.23
2022-12-14T13:26:55.634Z,11.75
2022-12-14T13:29:42.978Z,12.15
2022-12-14T13:32:13.584Z,11.98
2022-12-14T13:34:56.477Z,11.88
2022-12-14T13:37:26.912Z,11.27
2022-12-14T13:40:13.673Z,12.30
2022-12-14T13:42:57.093Z,12.77
2022-12-14T13:45:30.350Z,11.60
2022-12-14T13:47:59.315Z,14.13
2022-12-14T13:50:36.736Z,12.13
2022-12-14T13:53:28.021Z,14.30
2022-12-14T13:55:57.851Z,11.00
2022-12-14T13:58:33.245Z,13.48
2022-12-14T14:01:04.034Z,13.43
2022-12-14T14:03:37.680Z,14.23
2022-12-14T14:06:23.376Z,13.20
2022-12-14T14:08:52.957Z,11.52
2022-12-14T14:11:39.211Z,13.82
2022-12-14T14:14:25.492Z,11.00
2022-12-14T14:16:58.166Z,12.07
2022-12-14T14:19:27.641Z,11.95
2022-12-14T14:22:26.277Z,13.77
2022-12-14T14:25:12.516Z,13.23
2022-12-14T14:27:42.036Z,11.80
2022-12-14T14:30:29.157Z,12.57
2022-12-14T14:33:19.929Z,13.63
2022-12-14T14:35:49.540Z,12.85
2022-12-14T14:38:28.287Z,13.95
2022-12-14T14:41:15.984Z,14.10
2022-12-14T14:43:52.347Z,14.45
2022-12-14T14:46:39.362Z,14.48
2022-12-14T14:49:17.598Z,15.83
2022-12-14T14:51:45.179Z,14.50
2022-12-14T14:55:06.578Z,13.20
2022-12-14T14:57:36.115Z,16.92
2022-12-14T15:00:05.471Z,17.73
2022-12-14T15:02:39.003Z,13.30
2022-12-14T15:07:58.665Z,28.60
2022-12-14T15:10:39.059Z,75.00
2022-12-14T15:13:19.056Z,20.52
2022-12-14T15:15:49.841Z,29.13
2022-12-14T15:18:24.360Z,62.22
2022-12-14T15:21:00.902Z,54.65
2022-12-14T15:23:45.374Z,14.65
2022-12-14T15:26:21.136Z,15.93
2022-12-14T15:28:50.562Z,17.70
2022-12-14T15:31:20.104Z,15.63
2022-12-14T15:33:48.955Z,16.23
2022-12-14T15:36:18.214Z,16.85
2022-12-14T15:38:54.735Z,16.67
2022-12-14T15:41:24.559Z,17.65
2022-12-14T15:43:59.377Z,16.40
2022-12-14T15:46:31.810Z,19.98
2022-12-14T15:49:03.507Z,17.23
2022-12-14T15:51:40.715Z,17.35
2022-12-14T15:54:17.935Z,26.40
2022-12-14T15:56:50.594Z,27.70
2022-12-14T15:59:24.324Z,28.77
2022-12-14T16:02:08.306Z,17.63
2022-12-14T16:04:37.936Z,23.70
2022-12-14T16:07:18.066Z,24.02
2022-12-14T16:09:55.116Z,23.63
2022-12-14T16:12:32.058Z,18.73
2022-12-14T16:15:00.594Z,21.95
2022-12-14T16:17:32.270Z,16.08
2022-12-14T16:20:25.934Z,16.30
2022-12-14T16:23:01.355Z,17.27
2022-12-14T16:25:30.550Z,17.60
2022-12-14T16:27:58.250Z,15.35
2022-12-14T16:30:34.042Z,17.00
2022-12-14T16:33:19.621Z,20.38
2022-12-14T16:35:57.189Z,22.13
2022-12-14T16:38:24.829Z,15.23
2022-12-14T16:40:53.090Z,17.52
2022-12-14T16:43:38.832Z,18.10
2022-12-14T16:46:13.795Z,19.23
2022-12-14T16:48:50.282Z,20.60
2022-12-14T16:51:44.430Z,17.80
2022-12-14T16:54:27.307Z,15.52
2022-12-14T16:57:22.370Z,19.48
2022-12-14T17:00:01.003Z,20.65
2022-12-14T17:02:41.614Z,19.55
2022-12-14T17:05:18.312Z,22.50
2022-12-14T17:07:45.865Z,19.67
2022-12-14T17:10:19.870Z,26.77
2022-12-14T17:12:48.805Z,28.23
2022-12-14T17:15:18.320Z,24.92
2022-12-14T17:17:49.298Z,22.85
2022-12-14T17:20:29.456Z,21.05
2022-12-14T17:22:59.263Z,22.52
2022-12-14T17:25:28.412Z,19.00
2022-12-14T17:27:56.289Z,17.10
2022-12-14T17:30:25.279Z,19.13
2022-12-14T17:32:53.936Z,21.00
2022-12-14T17:35:29.614Z,18.73
2022-12-14T17:37:57.507Z,20.50
2022-12-14T17:40:25.595Z,24.55
2022-12-14T17:42:54.931Z,23.65
2022-12-14T17:45:25.127Z,18.85
2022-12-14T17:47:52.867Z,18.58
2022-12-14T17:50:20.699Z,21.08
2022-12-14T17:52:50.371Z,20.92
2022-12-14T17:55:23.219Z,19.48
2022-12-14T17:57:51.536Z,21.33
2022-12-14T18:00:43.462Z,19.63
2022-12-14T18:03:12.657Z,23.45
2022-12-14T18:05:48.070Z,23.83
2022-12-14T18:08:17.513Z,23.15
2022-12-14T18:10:46.290Z,25.15
2022-12-14T18:13:14.537Z,21.33
2022-12-14T18:15:50.103Z,24.70
2022-12-14T18:18:22.910Z,22.45
2022-12-14T18:20:53.060Z,22.58
2022-12-14T18:23:22.616Z,24.60
2022-12-14T18:26:00.278Z,21.02
2022-12-14T18:28:28.072Z,24.60
2022-12-14T18:31:02.648Z,23.55
2022-12-14T18:33:31.736Z,22.70
2022-12-14T18:35:59.860Z,21.40
2022-12-14T18:38:27.600Z,20.27
2022-12-14T18:40:58.445Z,23.17
2022-12-14T18:43:28.085Z,21.23
2022-12-14T18:45:56.968Z,18.55
2022-12-14T18:48:25.145Z,17.50
2022-12-14T18:50:54.459Z,19.08
2022-12-14T18:53:23.434Z,19.23
2022-12-14T18:55:51.623Z,18.83
2022-12-14T18:58:29.396Z,22.25
2022-12-14T19:00:59.059Z,22.35
2022-12-14T19:03:29.958Z,21.80
2022-12-14T19:06:34.830Z,23.27
2022-12-14T19:08:53.420Z,22.08
2022-12-14T19:11:29.218Z,23.33
2022-12-14T19:13:56.969Z,22.90
2022-12-14T19:16:24.832Z,26.73
2022-12-14T19:18:52.509Z,21.88
2022-12-14T19:21:20.431Z,26.15
2022-12-14T19:23:48.009Z,26.88
2022-12-14T19:26:15.656Z,25.35
2022-12-14T19:28:43.622Z,27.67
2022-12-14T19:31:12.455Z,22.33
2022-12-14T19:33:40.076Z,23.83
2022-12-14T19:36:08.415Z,21.08
2022-12-14T19:38:36.604Z,21.50
2022-12-14T19:41:11.386Z,23.60
2022-12-14T19:43:39.039Z,27.60
2022-12-14T19:46:15.570Z,25.20
2022-12-14T19:48:43.568Z,25.13
2022-12-14T19:51:12.787Z,22.58
2022-12-14T19:53:42.573Z,22.88
2022-12-14T19:56:10.999Z,26.73
2022-12-14T19:58:38.771Z,27.80
2022-12-14T20:01:14.588Z,24.42
2022-12-14T20:03:42.861Z,24.85
2022-12-14T20:06:10.736Z,25.55
2022-12-14T20:08:38.312Z,27.30
2022-12-14T20:11:10.564Z,26.23
2022-12-14T20:13:38.516Z,25.67
2022-12-14T20:16:06.568Z,23.90
2022-12-14T20:18:34.585Z,23.48
2022-12-14T20:21:07.037Z,24.50
2022-12-14T20:23:35.997Z,22.70
2022-12-14T20:26:09.200Z,21.35
2022-12-14T20:28:36.882Z,19.50
2022-12-14T20:31:08.695Z,21.17
2022-12-14T20:33:37.103Z,21.00
2022-12-14T20:36:05.446Z,19.65
2022-12-14T20:38:33.204Z,22.63
2022-12-14T20:41:09.641Z,20.08
2022-12-14T20:46:15.715Z,21.80
2022-12-14T20:48:43.444Z,21.77
2022-12-14T20:51:11.983Z,23.00
2022-12-14T20:53:39.549Z,21.02
2022-12-14T20:56:08.765Z,17.98
2022-12-14T20:58:36.390Z,21.38
2022-12-14T21:01:13.415Z,22.70
2022-12-14T21:03:41.917Z,22.25
2022-12-14T21:06:09.838Z,21.83
2022-12-14T21:08:57.374Z,21.08
2022-12-14T21:11:44.618Z,22.30
2022-12-14T21:14:12.604Z,19.25
2022-12-14T21:16:40.879Z,20.33
2022-12-14T21:19:08.668Z,22.42
2022-12-14T21:21:36.217Z,21.20
2022-12-14T21:24:03.923Z,20.80
2022-12-14T21:26:31.526Z,19.88
2022-12-14T21:28:59.110Z,18.25
2022-12-14T21:31:26.717Z,20.08
2022-12-14T21:33:55.817Z,21.15
2022-12-14T21:36:23.495Z,18.88
2022-12-14T21:38:51.074Z,22.75
2022-12-14T21:41:37.046Z,20.77
2022-12-14T21:44:04.740Z,19.10
2022-12-14T21:46:32.384Z,20.02
2022-12-14T21:49:00.362Z,31.23
2022-12-14T21:51:29.364Z,23.05
2022-12-14T21:54:00.194Z,22.85
2022-12-14T21:56:56.686Z,22.70
2022-12-14T21:59:29.923Z,21.58
2022-12-14T22:01:59.515Z,21.73
2022-12-14T22:04:28.218Z,20.38
2022-12-14T22:06:56.100Z,19.35
2022-12-14T22:09:23.903Z,25.70
2022-12-14T22:11:52.451Z,25.38
2022-12-14T22:14:22.259Z,24.35
2022-12-14T22:16:50.406Z,21.35
2022-12-14T22:19:22.925Z,24.30
2022-12-14T22:21:51.606Z,25.20
2022-12-14T22:24:20.810Z,20.92
2022-12-14T22:26:48.487Z,21.15
2022-12-14T22:29:17.263Z,19.98
2022-12-14T22:31:45.266Z,19.92
2022-12-14T22:34:21.802Z,26.63
2022-12-14T22:36:51.003Z,21.08
2022-12-14T22:39:19.098Z,20.52
2022-12-14T22:41:47.267Z,19.60
2022-12-14T22:44:14.899Z,19.77
2022-12-14T22:46:43.108Z,18.33
2022-12-14T22:49:14.147Z,28.98
2022-12-14T22:51:41.748Z,20.73
2022-12-14T22:54:11.405Z,19.40
2022-12-14T22:56:43.134Z,26.08
2022-12-14T22:59:14.711Z,21.98
2022-12-14T23:01:43.202Z,19.45
2022-12-14T23:04:17.636Z,19.35
2022-12-14T23:06:46.984Z,18.25
2022-12-14T23:09:33.102Z,20.42
2022-12-14T23:15:08.460Z,21.45
2022-12-14T23:17:54.986Z,19.83
2022-12-14T23:20:41.019Z,19.77
2022-12-14T23:23:27.682Z,24.70
2022-12-14T23:26:14.154Z,19.67
2022-12-14T23:29:00.158Z,21.95
2022-12-14T23:31:46.136Z,17.88
2022-12-14T23:34:32.216Z,21.52
2022-12-14T23:37:20.598Z,25.00
2022-12-14T23:40:07.461Z,22.90
2022-12-14T23:42:53.343Z,20.75
2022-12-14T23:45:39.455Z,20.38
2022-12-14T23:48:25.424Z,21.17
2022-12-14T23:51:11.440Z,21.17
2022-12-14T23:53:57.460Z,21.05
2022-12-14T23:56:43.534Z,19.13
2022-12-14T23:59:32.455Z,21.17
